Time;durP1;ratioP1;P1;durP2;ratioP2;P2;SDS_P1;SDS_P2;PMS_P1;PMS_P2;Temp;Humidity;BMP_temperature;BMP_pressure;BME280_temperature;BME280_humidity;BME280_pressure;Samples;Min_cycle;Max_cycle;Signal;HPM_P1;HPM_P2
2023/03/06 00:02:40;;;;;;;18.30;9.90;;;;;;;-0.84;75.41;99421.88;130345;1266;114729;-72
2023/03/06 00:05:42;;;;;;;18.40;9.70;;;;;;;-0.94;75.21;99422.92;130273;1256;116367;-73
2023/03/06 00:08:44;;;;;;;18.70;9.50;;;;;;;-1.02;75.58;99421.13;130299;1254;115188;-75
2023/03/06 00:11:46;;;;;;;21.00;9.90;;;;;;;-1.12;75.74;99417.41;130337;1257;115154;-71
2023/03/06 00:14:49;;;;;;;25.20;9.40;;;;;;;-1.19;75.50;99416.16;130300;1254;114679;-74
2023/03/06 00:17:52;;;;;;;19.20;10.50;;;;;;;-1.27;75.35;99417.85;130285;1257;114661;-68
2023/03/06 00:20:54;;;;;;;16.50;9.30;;;;;;;-1.34;75.34;99418.46;130382;1276;115347;-73
2023/03/06 00:23:56;;;;;;;19.60;9.70;;;;;;;-1.41;75.43;99416.83;130375;1276;114798;-69
2023/03/06 00:26:58;;;;;;;20.00;9.90;;;;;;;-1.46;75.50;99416.02;130400;1260;115281;-72
2023/03/06 00:30:01;;;;;;;18.60;9.40;;;;;;;-1.52;75.98;99412.80;130406;1256;115360;-68
2023/03/06 00:33:03;;;;;;;22.00;10.00;;;;;;;-1.57;76.25;99411.27;130512;1266;114739;-69
2023/03/06 00:36:06;;;;;;;19.80;10.80;;;;;;;-1.60;76.18;99413.09;130481;1256;114754;-69
2023/03/06 00:39:08;;;;;;;22.20;10.80;;;;;;;-1.63;76.30;99411.38;130253;1264;114760;-71
2023/03/06 00:42:11;;;;;;;16.90;9.60;;;;;;;-1.66;76.44;99410.02;130207;1256;114734;-71
2023/03/06 00:45:13;;;;;;;19.60;11.10;;;;;;;-1.69;76.57;99404.98;130363;1269;116162;-71
2023/03/06 00:48:15;;;;;;;14.40;9.90;;;;;;;-1.69;76.58;99408.65;130405;1272;114823;-71
2023/03/06 00:51:18;;;;;;;16.60;9.00;;;;;;;-1.70;76.26;99408.48;130332;1266;115190;-69
2023/03/06 00:54:20;;;;;;;20.90;11.00;;;;;;;-1.69;76.91;99401.48;130299;1260;115355;-69
2023/03/06 00:57:23;;;;;;;21.10;11.70;;;;;;;-1.67;77.02;99398.30;130492;1257;114674;-71
2023/03/06 01:00:25;;;;;;;23.20;12.00;;;;;;;-1.66;77.00;99392.16;130470;1256;114967;-69
2023/03/06 01:03:27;;;;;;;25.10;12.70;;;;;;;-1.63;76.83;99386.50;130475;1271;115214;-68
2023/03/06 01:06:30;;;;;;;25.70;13.50;;;;;;;-1.61;77.21;99380.88;130494;1257;114722;-69
2023/03/06 01:09:32;;;;;;;26.30;13.20;;;;;;;-1.57;77.49;99377.67;130432;1266;115044;-69
2023/03/06 01:12:34;;;;;;;25.60;13.20;;;;;;;-1.52;77.49;99371.83;130490;1259;114706;-69
2023/03/06 01:15:36;;;;;;;24.60;13.90;;;;;;;-1.49;77.27;99368.61;130368;1260;115141;-70
2023/03/06 01:18:39;;;;;;;20.90;12.60;;;;;;;-1.44;77.55;99368.71;130278;1276;114830;-71
2023/03/06 01:21:41;;;;;;;25.20;12.90;;;;;;;-1.39;77.28;99364.95;130279;1255;114806;-69
2023/03/06 01:24:43;;;;;;;25.50;13.30;;;;;;;-1.35;77.47;99362.97;130072;1261;218004;-69
2023/03/06 01:27:46;;;;;;;24.20;13.80;;;;;;;-1.29;77.41;99359.19;130324;1258;114722;-69
2023/03/06 01:30:48;;;;;;;25.60;12.50;;;;;;;-1.24;77.50;99356.66;130472;1267;114952;-71
2023/03/06 01:33:51;;;;;;;23.50;12.20;;;;;;;-1.20;77.66;99353.61;130479;1257;115147;-69
2023/03/06 01:36:53;;;;;;;20.20;10.70;;;;;;;-1.16;77.99;99342.50;130256;1257;114863;-69
2023/03/06 01:39:55;;;;;;;20.50;11.20;;;;;;;-1.10;78.21;99342.06;130302;1259;114846;-68
2023/03/06 01:42:57;;;;;;;19.10;10.90;;;;;;;-1.04;78.33;99336.53;130243;1267;114775;-70
2023/03/06 01:46:27;;;;;;;16.70;9.70;;;;;;;-0.99;78.15;99332.04;130258;1260;114744;-69
2023/03/06 01:49:38;;;;;;;20.50;10.40;;;;;;;-0.92;78.22;99330.86;130215;1257;115369;-70
2023/03/06 01:52:46;;;;;;;19.30;10.70;;;;;;;-0.86;78.50;99328.30;130056;1258;114866;-69
2023/03/06 01:55:49;;;;;;;16.30;10.40;;;;;;;-0.80;78.68;99326.42;130222;1266;114810;-71
2023/03/06 01:58:51;;;;;;;20.00;10.10;;;;;;;-0.74;78.33;99328.07;130158;1270;114847;-70
2023/03/06 02:01:54;;;;;;;18.10;10.40;;;;;;;-0.68;78.69;99326.39;130253;1276;114870;-69
2023/03/06 02:04:57;;;;;;;17.90;10.50;;;;;;;-0.62;78.69;99324.34;130539;1253;114740;-69
2023/03/06 02:08:00;;;;;;;17.60;9.80;;;;;;;-0.57;78.75;99323.20;130309;1267;115187;-70
2023/03/06 02:11:14;;;;;;;16.70;10.80;;;;;;;-0.53;78.64;99323.64;130359;1259;114843;-69
2023/03/06 02:14:17;;;;;;;16.90;10.50;;;;;;;-0.48;78.70;99325.11;130244;1260;114759;-69
2023/03/06 02:17:20;;;;;;;17.90;11.60;;;;;;;-0.43;78.63;99315.38;130214;1267;115497;-70
2023/03/06 02:20:26;;;;;;;16.10;10.80;;;;;;;-0.38;78.55;99304.74;130298;1257;115530;-69
2023/03/06 02:23:50;;;;;;;19.20;11.40;;;;;;;-0.34;78.88;99305.55;130364;1267;115217;-71
2023/03/06 02:26:52;;;;;;;17.20;12.30;;;;;;;-0.31;78.79;99298.98;130270;1256;114777;-69
2023/03/06 02:29:55;;;;;;;19.50;12.30;;;;;;;-0.27;78.80;99292.06;130323;1257;114837;-71
2023/03/06 02:32:57;;;;;;;19.80;12.90;;;;;;;-0.23;78.73;99290.02;130393;1257;114712;-73
2023/03/06 02:36:03;;;;;;;25.80;14.80;;;;;;;-0.21;78.81;99283.49;130584;1267;114718;-71
2023/03/06 02:39:05;;;;;;;25.00;14.80;;;;;;;-0.18;79.06;99278.35;130376;1255;128879;-69
2023/03/06 02:42:08;;;;;;;24.60;15.20;;;;;;;-0.16;78.81;99280.58;130428;1266;114760;-73
2023/03/06 02:45:12;;;;;;;23.70;14.70;;;;;;;-0.15;78.83;99279.33;130282;1260;114743;-70
2023/03/06 02:48:15;;;;;;;29.30;16.30;;;;;;;-0.13;78.73;99274.55;130200;1254;114876;-73
2023/03/06 02:51:18;;;;;;;26.10;16.00;;;;;;;-0.13;78.75;99266.83;130257;1266;114731;-73
2023/03/06 02:54:20;;;;;;;22.30;13.80;;;;;;;-0.13;78.69;99269.10;130288;1257;114720;-71
2023/03/06 02:57:22;;;;;;;18.60;12.20;;;;;;;-0.13;78.67;99262.27;130399;1257;115339;-72
2023/03/06 03:00:25;;;;;;;19.40;12.60;;;;;;;-0.12;78.84;99259.98;130321;1276;115131;-68
2023/03/06 03:03:27;;;;;;;19.00;12.10;;;;;;;-0.11;78.93;99256.09;130433;1257;114744;-71
2023/03/06 03:06:29;;;;;;;21.30;12.90;;;;;;;-0.11;78.84;99253.98;130285;1257;114773;-71
2023/03/06 03:09:35;;;;;;;20.70;13.00;;;;;;;-0.11;78.79;99247.31;130478;1257;114740;-72
2023/03/06 03:12:38;;;;;;;20.40;12.90;;;;;;;-0.10;78.76;99240.98;130290;1257;114731;-71
2023/03/06 03:15:40;;;;;;;21.00;13.50;;;;;;;-0.11;78.87;99242.23;130327;1257;114790;-68
2023/03/06 03:18:43;;;;;;;24.30;14.50;;;;;;;-0.11;78.87;99236.96;130332;1276;115327;-69
2023/03/06 03:21:46;;;;;;;22.20;13.30;;;;;;;-0.10;78.97;99235.89;130438;1257;114746;-72
2023/03/06 03:24:48;;;;;;;24.40;14.60;;;;;;;-0.09;78.99;99234.62;130335;1257;114743;-69
2023/03/06 03:27:50;;;;;;;20.80;13.00;;;;;;;-0.07;78.85;99230.19;130236;1257;114753;-69
2023/03/06 03:30:52;;;;;;;22.10;13.90;;;;;;;-0.05;78.89;99226.45;130277;1254;114805;-72
2023/03/06 03:33:55;;;;;;;22.70;14.20;;;;;;;-0.03;79.05;99220.96;130264;1257;115328;-69
2023/03/06 03:36:57;;;;;;;26.20;14.30;;;;;;;-0.02;78.89;99216.39;130370;1266;114728;-69
2023/03/06 03:39:59;;;;;;;22.50;13.30;;;;;;;-0.02;79.12;99213.22;130319;1266;115279;-70
2023/03/06 03:43:01;;;;;;;28.70;16.30;;;;;;;0.01;79.03;99211.37;130360;1257;115119;-71
2023/03/06 03:46:04;;;;;;;24.20;14.40;;;;;;;0.01;79.14;99207.70;130531;1258;114715;-73
2023/03/06 03:49:07;;;;;;;27.10;16.20;;;;;;;0.03;78.92;99202.77;130427;1259;114749;-72
2023/03/06 03:52:09;;;;;;;28.20;16.10;;;;;;;0.05;79.14;99202.35;130480;1267;114805;-71
2023/03/06 03:55:11;;;;;;;23.70;15.30;;;;;;;0.07;79.26;99201.77;130514;1258;114867;-70
2023/03/06 03:58:13;;;;;;;26.60;15.90;;;;;;;0.10;79.15;99202.58;130358;1257;114741;-68
2023/03/06 04:01:15;;;;;;;23.70;15.00;;;;;;;0.10;79.08;99193.45;130282;1257;115137;-70
2023/03/06 04:04:17;;;;;;;25.20;14.80;;;;;;;0.07;79.08;99192.82;130259;1258;114683;-71
2023/03/06 04:07:19;;;;;;;31.30;17.50;;;;;;;0.08;79.13;99186.15;130315;1266;115041;-71
2023/03/06 04:10:22;;;;;;;27.00;17.50;;;;;;;0.09;79.13;99187.67;129929;1261;114761;-69
2023/03/06 04:13:24;;;;;;;28.10;17.40;;;;;;;0.11;79.41;99181.13;130062;1270;114814;-72
2023/03/06 04:16:27;;;;;;;31.80;19.50;;;;;;;0.13;79.33;99175.65;130172;1274;114734;-73
2023/03/06 04:19:29;;;;;;;30.90;19.30;;;;;;;0.11;79.30;99176.04;130234;1258;114734;-70
2023/03/06 04:22:31;;;;;;;33.90;19.70;;;;;;;0.11;79.39;99168.31;130181;1254;115395;-71
2023/03/06 04:25:33;;;;;;;28.80;18.40;;;;;;;0.13;79.44;99169.15;130195;1257;114702;-72
2023/03/06 04:28:35;;;;;;;34.20;19.60;;;;;;;0.15;79.58;99165.95;130261;1256;115151;-71
2023/03/06 04:31:37;;;;;;;34.80;19.90;;;;;;;0.17;79.43;99165.91;130186;1258;114756;-72
2023/03/06 04:34:40;;;;;;;33.60;19.60;;;;;;;0.17;79.50;99162.54;130206;1267;114729;-72
2023/03/06 04:37:42;;;;;;;30.70;20.20;;;;;;;0.20;79.66;99157.92;130279;1257;114738;-72
2023/03/06 04:40:45;;;;;;;35.60;22.70;;;;;;;0.21;79.59;99141.38;130271;1273;127786;-71
2023/03/06 04:43:47;;;;;;;37.50;24.00;;;;;;;0.22;79.68;99138.73;130249;1260;114769;-69
2023/03/06 04:46:49;;;;;;;41.00;25.70;;;;;;;0.22;79.75;99154.00;130250;1258;114789;-70
2023/03/06 04:49:51;;;;;;;45.70;27.90;;;;;;;0.24;79.80;99144.47;130316;1254;114748;-68
2023/03/06 04:52:54;;;;;;;38.70;25.00;;;;;;;0.25;79.80;99138.29;130350;1258;114773;-72
2023/03/06 04:55:56;;;;;;;45.90;28.30;;;;;;;0.26;79.85;99143.71;130266;1276;114745;-70
2023/03/06 04:58:58;;;;;;;43.30;26.70;;;;;;;0.27;79.75;99143.16;130355;1270;114746;-73
2023/03/06 05:02:00;;;;;;;42.60;27.70;;;;;;;0.28;79.89;99140.84;130277;1257;128975;-71
2023/03/06 05:05:03;;;;;;;45.40;27.70;;;;;;;0.29;79.93;99142.39;130280;1257;115228;-71
2023/03/06 05:08:05;;;;;;;44.60;28.30;;;;;;;0.30;79.78;99151.16;130333;1254;114785;-69
2023/03/06 05:11:07;;;;;;;45.10;27.70;;;;;;;0.34;80.11;99142.98;130402;1257;115019;-69
2023/03/06 05:14:10;;;;;;;45.00;24.40;;;;;;;0.38;80.01;99137.61;130264;1257;114776;-69
2023/03/06 05:17:12;;;;;;;38.50;24.40;;;;;;;0.40;80.09;99136.66;130329;1258;116344;-69
2023/03/06 05:20:15;;;;;;;35.20;23.90;;;;;;;0.43;80.19;99141.52;130419;1270;115020;-70
2023/03/06 05:23:17;;;;;;;39.80;24.00;;;;;;;0.45;79.89;99133.54;130477;1276;115608;-68
2023/03/06 05:26:19;;;;;;;36.00;21.50;;;;;;;0.49;80.28;99132.40;130423;1258;114756;-69
2023/03/06 05:29:21;;;;;;;30.60;18.80;;;;;;;0.53;80.23;99132.98;130559;1258;115004;-69
2023/03/06 05:32:23;;;;;;;28.90;18.40;;;;;;;0.56;80.30;99129.21;130057;1257;114869;-68
2023/03/06 05:35:25;;;;;;;28.90;19.00;;;;;;;0.60;80.44;99133.31;130256;1255;115186;-69
2023/03/06 05:38:28;;;;;;;29.60;18.90;;;;;;;0.63;80.42;99129.73;130415;1257;114830;-69
2023/03/06 05:41:30;;;;;;;32.30;19.50;;;;;;;0.67;80.65;99129.96;130277;1257;116403;-70
2023/03/06 05:44:34;;;;;;;30.10;18.40;;;;;;;0.70;80.45;99128.80;130267;1261;115185;-70
2023/03/06 05:47:36;;;;;;;26.10;18.20;;;;;;;0.73;80.61;99128.91;130313;1254;114776;-70
2023/03/06 05:50:39;;;;;;;32.70;19.40;;;;;;;0.77;80.47;99128.45;130154;1258;114786;-69
2023/03/06 05:53:41;;;;;;;29.90;19.90;;;;;;;0.82;80.64;99130.94;130293;1252;114718;-69
2023/03/06 05:56:43;;;;;;;31.20;19.60;;;;;;;0.86;80.43;99127.31;130065;1260;114852;-71
2023/03/06 05:59:46;;;;;;;32.10;19.50;;;;;;;0.92;80.83;99129.63;130162;1270;114668;-69
2023/03/06 06:02:48;;;;;;;28.50;18.00;;;;;;;0.97;80.38;99124.55;130345;1255;115388;-68
2023/03/06 06:05:51;;;;;;;26.00;18.20;;;;;;;1.01;80.35;99124.76;130346;1254;114741;-70
2023/03/06 06:08:53;;;;;;;27.30;18.70;;;;;;;1.05;80.62;99125.52;130162;1257;115183;-68
2023/03/06 06:11:58;;;;;;;30.60;19.40;;;;;;;1.10;80.45;99122.05;130443;1257;114743;-69
2023/03/06 06:15:00;;;;;;;30.80;20.90;;;;;;;1.15;80.56;99124.72;130484;1257;114778;-71
2023/03/06 06:18:02;;;;;;;38.50;25.70;;;;;;;1.20;80.68;99126.13;130422;1257;115083;-69
2023/03/06 06:21:09;;;;;;;30.10;21.30;;;;;;;1.25;80.43;99128.81;130491;1256;114721;-69
2023/03/06 06:24:11;;;;;;;31.10;21.40;;;;;;;1.31;80.62;99130.38;130301;1276;127723;-69
2023/03/06 06:27:13;;;;;;;26.70;17.90;;;;;;;1.39;80.40;99130.84;130334;1254;114798;-69
2023/03/06 06:30:16;;;;;;;28.70;16.90;;;;;;;1.48;80.44;99133.91;130285;1256;114808;-71
2023/03/06 06:33:18;;;;;;;22.60;16.00;;;;;;;1.57;80.19;99133.65;130395;1256;114741;-70
2023/03/06 06:36:21;;;;;;;28.40;17.60;;;;;;;1.66;80.62;99135.11;130169;1258;114761;-70
2023/03/06 06:39:24;;;;;;;27.80;18.70;;;;;;;1.77;80.52;99140.39;130364;1257;114731;-70
2023/03/06 06:42:26;;;;;;;31.10;18.80;;;;;;;1.87;80.39;99138.48;130213;1254;114731;-70
2023/03/06 06:45:29;;;;;;;26.90;18.40;;;;;;;1.96;80.29;99135.20;130234;1254;114807;-70
2023/03/06 06:48:31;;;;;;;24.70;17.40;;;;;;;2.05;80.08;99137.02;130368;1276;115113;-68
2023/03/06 06:51:33;;;;;;;20.60;15.20;;;;;;;2.12;79.85;99140.64;130303;1257;114798;-68
2023/03/06 06:54:35;;;;;;;44.90;27.40;;;;;;;2.21;80.00;99138.22;130245;1254;114813;-69
2023/03/06 06:57:37;;;;;;;62.30;37.60;;;;;;;2.30;79.75;99136.00;130254;1254;115436;-71
2023/03/06 07:00:39;;;;;;;45.80;28.90;;;;;;;2.40;79.74;99137.42;130242;1276;114766;-69
2023/03/06 07:03:41;;;;;;;28.40;20.40;;;;;;;2.49;79.81;99134.45;130214;1257;114766;-71
2023/03/06 07:06:44;;;;;;;36.40;23.70;;;;;;;2.58;79.44;99134.29;130310;1260;114821;-70
2023/03/06 07:09:46;;;;;;;36.30;21.30;;;;;;;2.67;79.31;99129.06;130308;1276;115285;-69
2023/03/06 07:12:48;;;;;;;27.70;18.30;;;;;;;2.77;79.11;99132.06;130264;1257;115238;-70
2023/03/06 07:15:51;;;;;;;28.70;17.00;;;;;;;2.87;79.02;99132.41;130348;1257;114759;-70
2023/03/06 07:18:53;;;;;;;20.40;15.80;;;;;;;2.96;78.84;99134.00;130222;1275;114863;-70
2023/03/06 07:21:56;;;;;;;15.10;12.20;;;;;;;3.05;78.68;99134.71;130263;1255;115160;-71
2023/03/06 07:24:58;;;;;;;16.30;12.70;;;;;;;3.15;78.62;99131.36;130225;1257;116456;-71
2023/03/06 07:28:00;;;;;;;18.20;11.40;;;;;;;3.27;78.51;99130.70;130393;1253;114703;-70
2023/03/06 07:31:08;;;;;;;14.10;10.80;;;;;;;3.37;78.20;99134.05;130216;1254;115260;-71
2023/03/06 07:34:12;;;;;;;15.10;10.80;;;;;;;3.46;77.85;99137.04;130264;1252;114746;-71
2023/03/06 07:37:15;;;;;;;15.60;11.30;;;;;;;3.55;77.76;99138.80;130407;1257;115116;-71
2023/03/06 07:40:18;;;;;;;18.30;12.20;;;;;;;3.67;77.70;99141.89;130220;1275;115112;-71
2023/03/06 07:43:20;;;;;;;19.80;13.40;;;;;;;3.78;77.63;99142.68;130178;1276;114708;-70
2023/03/06 07:46:23;;;;;;;19.80;13.20;;;;;;;3.90;77.31;99143.96;130098;1259;115353;-71
2023/03/06 07:49:25;;;;;;;22.50;15.50;;;;;;;3.99;77.15;99147.14;130209;1259;114892;-72
2023/03/06 07:52:28;;;;;;;23.50;16.80;;;;;;;4.12;77.29;99145.37;130153;1256;114725;-71
2023/03/06 07:55:30;;;;;;;27.70;17.10;;;;;;;4.21;76.71;99147.44;130107;1259;114852;-72
2023/03/06 07:58:32;;;;;;;25.90;17.80;;;;;;;4.31;76.68;99153.03;130259;1256;114744;-71
2023/03/06 08:01:35;;;;;;;26.40;17.90;;;;;;;4.44;76.75;99152.48;130295;1259;114843;-70
2023/03/06 08:04:37;;;;;;;28.20;20.00;;;;;;;4.56;76.19;99148.10;130181;1261;128687;-72
2023/03/06 08:07:40;;;;;;;29.60;17.50;;;;;;;4.70;76.28;99146.09;130166;1255;115189;-71
2023/03/06 08:10:47;;;;;;;28.80;18.60;;;;;;;4.84;75.93;99148.80;130174;1256;114726;-71
2023/03/06 08:13:51;;;;;;;26.70;18.60;;;;;;;4.97;75.63;99150.72;130251;1259;115404;-73
2023/03/06 08:16:56;;;;;;;31.80;18.70;;;;;;;5.13;75.39;99149.30;130250;1278;114718;-71
2023/03/06 08:19:58;;;;;;;;;;;;;;;5.32;75.51;99143.11;129789;1278;127920;-72
2023/03/06 08:23:01;;;;;;;23.60;17.10;;;;;;;5.51;75.28;99140.98;130123;1275;114725;-72
2023/03/06 08:26:06;;;;;;;24.00;17.40;;;;;;;5.71;74.84;99144.45;130162;1255;114849;-70
2023/03/06 08:29:09;;;;;;;18.80;14.60;;;;;;;5.88;74.17;99140.77;130273;1259;114773;-72
2023/03/06 08:32:11;;;;;;;21.30;16.20;;;;;;;5.99;73.44;99140.11;130192;1259;115151;-72
2023/03/06 08:35:13;;;;;;;21.80;15.40;;;;;;;6.09;73.49;99144.06;130154;1254;114763;-72
2023/03/06 08:38:15;;;;;;;23.30;16.70;;;;;;;6.19;73.21;99143.00;130114;1260;114805;-75
2023/03/06 08:41:19;;;;;;;23.70;17.20;;;;;;;6.26;72.72;99140.75;130181;1259;128924;-74
2023/03/06 08:44:21;;;;;;;23.60;18.40;;;;;;;6.22;72.04;99139.52;130184;1278;115257;-74
2023/03/06 08:47:24;;;;;;;28.90;19.30;;;;;;;6.24;72.04;99140.67;130348;1254;115111;-76
2023/03/06 08:50:26;;;;;;;22.40;17.60;;;;;;;6.22;71.78;99138.27;130263;1257;114817;-72
2023/03/06 08:53:28;;;;;;;23.40;17.70;;;;;;;6.24;71.47;99139.08;130332;1256;115484;-73
2023/03/06 08:56:32;;;;;;;25.60;19.10;;;;;;;6.25;71.45;99139.71;130364;1253;114871;-75
2023/03/06 08:59:37;;;;;;;24.30;18.10;;;;;;;6.31;71.53;99142.25;130318;1268;128275;-73
2023/03/06 09:02:40;;;;;;;23.40;17.40;;;;;;;6.35;71.26;99143.11;130416;1256;115171;-70
2023/03/06 09:05:43;;;;;;;21.90;16.50;;;;;;;6.40;71.04;99143.74;130267;1257;115225;-69
2023/03/06 09:08:45;;;;;;;19.80;16.20;;;;;;;6.48;70.50;99144.78;130622;1256;114743;-70
2023/03/06 09:11:47;;;;;;;21.00;16.00;;;;;;;6.53;70.44;99140.41;130227;1257;114760;-69
2023/03/06 09:14:49;;;;;;;20.30;16.10;;;;;;;6.63;70.41;99139.90;130209;1256;115612;-66
2023/03/06 09:17:53;;;;;;;20.50;15.70;;;;;;;6.77;70.31;99137.45;130464;1254;114792;-66
2023/03/06 09:20:55;;;;;;;23.30;17.40;;;;;;;6.88;69.85;99138.23;130294;1254;128691;-66
2023/03/06 09:23:58;;;;;;;20.00;14.30;;;;;;;6.98;70.16;99135.22;130439;1253;114728;-67
2023/03/06 09:27:00;;;;;;;21.50;15.40;;;;;;;7.13;69.67;99132.30;130359;1257;114734;-67
2023/03/06 09:30:03;;;;;;;19.70;15.20;;;;;;;7.24;69.16;99134.73;130455;1257;114805;-69
2023/03/06 09:33:06;;;;;;;22.10;16.00;;;;;;;7.37;69.12;99134.57;130542;1256;114804;-68
2023/03/06 09:36:14;;;;;;;23.20;17.00;;;;;;;7.49;69.30;99129.44;130339;1254;115208;-67
2023/03/06 09:39:16;;;;;;;20.60;15.80;;;;;;;7.66;69.24;99131.52;130370;1257;127869;-67
2023/03/06 09:42:20;;;;;;;22.10;14.40;;;;;;;7.83;69.07;99130.24;130332;1256;114815;-67
2023/03/06 09:45:22;;;;;;;19.40;13.70;;;;;;;7.89;68.16;99130.20;130423;1257;115360;-66
2023/03/06 09:48:41;;;;;;;17.10;13.10;;;;;;;7.93;67.40;99128.41;130388;1254;114718;-69
2023/03/06 09:52:06;;;;;;;19.90;13.60;;;;;;;8.00;67.31;99128.57;130367;1256;114816;-65
2023/03/06 09:55:18;;;;;;;18.20;14.80;;;;;;;8.08;67.11;99130.19;130332;1257;129417;-69
2023/03/06 09:58:23;;;;;;;20.30;14.50;;;;;;;8.15;67.31;99128.55;130445;1254;115354;-68
2023/03/06 10:01:33;;;;;;;19.50;15.20;;;;;;;8.24;67.36;99127.68;130448;1275;114813;-66
2023/03/06 10:04:59;;;;;;;18.70;14.50;;;;;;;8.33;66.83;99126.28;130180;1254;114894;-68
2023/03/06 10:08:16;;;;;;;20.70;15.60;;;;;;;8.40;66.49;99129.23;130105;1256;115096;-67
2023/03/06 10:11:25;;;;;;;21.20;13.40;;;;;;;8.43;66.59;99125.71;130187;1275;127956;-66
2023/03/06 10:14:37;;;;;;;19.80;14.50;;;;;;;8.45;65.93;99123.22;130145;1262;115202;-67
2023/03/06 10:17:40;;;;;;;21.90;15.40;;;;;;;8.45;65.92;99120.22;130049;1262;114809;-69
2023/03/06 10:20:53;;;;;;;21.70;14.70;;;;;;;8.51;65.89;99116.34;130257;1257;114834;-63
2023/03/06 10:24:34;;;;;;;22.00;14.60;;;;;;;8.57;65.92;99109.39;129541;1262;114812;-66
2023/03/06 10:27:46;;;;;;;23.20;15.80;;;;;;;8.57;65.42;99108.49;129642;1260;129349;-65
2023/03/06 10:31:24;;;;;;;17.90;14.30;;;;;;;8.53;64.82;99111.04;129671;1262;115254;-67
2023/03/06 10:34:28;;;;;;;18.70;14.30;;;;;;;8.47;64.75;99102.33;129521;1268;114904;-67
2023/03/06 10:37:30;;;;;;;22.90;15.80;;;;;;;8.44;64.81;99099.68;129271;1268;114953;-67
2023/03/06 10:40:43;;;;;;;20.30;15.00;;;;;;;8.46;64.71;99094.70;129313;1268;115297;-68
2023/03/06 10:44:06;;;;;;;18.90;13.50;;;;;;;8.56;65.34;99091.30;129368;1268;128946;-64
2023/03/06 10:47:30;;;;;;;21.60;14.20;;;;;;;8.65;64.91;99086.48;128713;1275;115298;-66
2023/03/06 10:50:33;;;;;;;18.30;13.00;;;;;;;8.72;64.52;99083.23;129106;1281;114827;-64
2023/03/06 10:53:35;;;;;;;16.50;13.50;;;;;;;8.75;64.28;99077.89;129389;1268;114853;-65
2023/03/06 10:56:40;;;;;;;20.30;13.90;;;;;;;8.77;64.02;99075.98;129342;1270;115010;-67
2023/03/06 10:59:50;;;;;;;16.30;13.60;;;;;;;8.80;64.25;99075.10;129099;1268;128698;-69
2023/03/06 11:03:22;;;;;;;15.80;13.00;;;;;;;8.84;63.95;99069.65;129187;1274;115029;-72
2023/03/06 11:06:33;;;;;;;15.60;12.00;;;;;;;8.85;63.34;99068.92;129334;1271;114857;-66
2023/03/06 11:09:36;;;;;;;14.10;11.50;;;;;;;8.78;63.21;99065.95;129093;1271;114849;-64
2023/03/06 11:12:40;;;;;;;16.10;12.30;;;;;;;8.80;63.01;99062.80;129630;1265;114857;-68
2023/03/06 11:15:55;;;;;;;13.30;11.20;;;;;;;8.81;62.97;99056.31;129684;1260;114959;-66
2023/03/06 11:19:04;;;;;;;14.80;12.20;;;;;;;8.85;62.81;99057.33;129532;1260;114924;-68
2023/03/06 11:22:17;;;;;;;16.20;11.80;;;;;;;8.81;62.11;99053.98;129868;1259;114939;-65
2023/03/06 11:25:22;;;;;;;17.30;12.00;;;;;;;8.78;61.78;99048.45;129632;1267;116615;-68
2023/03/06 11:28:27;;;;;;;17.60;14.40;;;;;;;8.78;61.91;99046.14;129776;1264;114841;-68
2023/03/06 11:31:35;;;;;;;16.60;11.70;;;;;;;8.86;62.19;99046.02;129747;1265;128928;-67
2023/03/06 11:34:59;;;;;;;20.00;13.00;;;;;;;8.93;62.25;99043.31;129726;1264;115360;-64
2023/03/06 11:38:11;;;;;;;19.40;13.60;;;;;;;8.99;62.05;99042.02;129307;1260;114907;-64
2023/03/06 11:41:26;;;;;;;21.20;13.30;;;;;;;9.08;61.99;99042.34;129305;1271;114966;-65
2023/03/06 11:44:50;;;;;;;18.60;12.00;;;;;;;9.11;61.22;99038.42;129875;1254;114995;-63
2023/03/06 11:47:58;;;;;;;19.20;12.40;;;;;;;9.02;60.66;99036.34;129907;1254;128998;-67
2023/03/06 11:51:14;;;;;;;24.50;15.40;;;;;;;8.93;61.04;99033.48;130357;1262;115216;-66
2023/03/06 11:54:16;;;;;;;27.50;15.80;;;;;;;8.89;60.27;99030.40;130274;1253;114821;-62
2023/03/06 11:57:22;;;;;;;15.10;11.50;;;;;;;8.80;59.97;99030.95;129753;1270;115180;-62
2023/03/06 12:01:20;;;;;;;15.00;11.50;;;;;;;8.74;60.32;99028.44;129962;1272;114722;-61
2023/03/06 12:04:35;;;;;;;16.50;12.90;;;;;;;8.63;59.70;99023.81;129223;1275;129189;-62
2023/03/06 12:07:48;;;;;;;19.20;13.10;;;;;;;8.49;59.85;99025.70;129298;1265;114847;-71
2023/03/06 12:10:56;;;;;;;15.30;11.60;;;;;;;8.39;60.10;99022.58;129639;1266;114931;-70
2023/03/06 12:14:20;;;;;;;17.10;12.80;;;;;;;8.29;59.93;99016.90;129734;1260;114844;-73
2023/03/06 12:17:25;;;;;;;15.50;12.10;;;;;;;8.23;60.03;99012.83;129676;1265;114920;-72
2023/03/06 12:20:29;;;;;;;18.10;11.10;;;;;;;8.18;60.12;99009.38;129574;1262;129312;-73
2023/03/06 12:23:45;;;;;;;17.60;11.80;;;;;;;8.17;60.51;99003.27;129364;1284;114857;-69
2023/03/06 12:27:18;;;;;;;18.50;11.80;;;;;;;8.23;60.27;98999.51;129499;1280;114905;-66
2023/03/06 12:30:20;;;;;;;18.10;12.90;;;;;;;8.35;60.48;98993.98;129590;1261;114977;-70
2023/03/06 12:33:48;;;;;;;15.70;12.60;;;;;;;8.45;60.57;98989.24;129571;1265;114761;-68
2023/03/06 12:37:10;;;;;;;15.70;11.40;;;;;;;8.56;60.23;98986.13;129586;1265;128926;-71
2023/03/06 12:40:22;;;;;;;15.20;11.60;;;;;;;8.70;60.42;98984.00;129711;1276;115369;-73
2023/03/06 12:43:30;;;;;;;18.10;13.00;;;;;;;8.78;59.96;98977.60;130318;1256;114718;-73
2023/03/06 12:46:37;;;;;;;17.40;11.60;;;;;;;8.78;59.51;98980.81;129965;1274;116166;-72
2023/03/06 12:49:42;;;;;;;13.70;10.90;;;;;;;8.71;58.92;98980.76;129984;1258;115038;-72
2023/03/06 12:52:44;;;;;;;;;;;;;;;8.50;58.49;98980.81;130251;1257;129935;-71
2023/03/06 12:55:48;;;;;;;21.50;12.80;;;;;;;8.28;58.52;98982.15;130169;1277;114753;-72
2023/03/06 12:58:55;;;;;;;19.70;12.50;;;;;;;8.07;57.77;98980.01;130115;1259;115199;-72
2023/03/06 13:02:12;;;;;;;18.00;12.10;;;;;;;7.84;58.33;98985.51;129844;1262;115035;-72
2023/03/06 13:05:52;;;;;;;23.10;16.40;;;;;;;7.66;59.10;98995.77;130269;1257;114723;-73
2023/03/06 13:09:24;;;;;;;26.40;17.00;;;;;;;7.38;59.56;98992.58;130283;1277;128596;-70
2023/03/06 13:12:26;;;;;;;24.50;17.60;;;;;;;7.05;59.95;98995.49;130202;1261;116615;-69
2023/03/06 13:15:33;;;;;;;26.00;17.60;;;;;;;6.79;60.23;98993.38;130365;1253;114811;-71
2023/03/06 13:18:36;;;;;;;23.00;16.80;;;;;;;6.53;60.76;98994.25;130324;1253;114720;-72
2023/03/06 13:22:00;;;;;;;25.70;17.50;;;;;;;6.34;61.10;98997.23;130190;1258;114748;-70
2023/03/06 13:25:18;;;;;;;32.00;21.80;;;;;;;6.16;61.46;98994.26;129810;1260;302852;-69
2023/03/06 13:28:41;;;;;;;26.00;17.60;;;;;;;6.03;62.09;98996.38;130187;1257;115269;-72
2023/03/06 13:31:43;;;;;;;28.50;17.40;;;;;;;5.92;62.53;99003.63;130078;1254;114758;-70
2023/03/06 13:34:48;;;;;;;28.20;18.40;;;;;;;5.84;62.87;99001.72;130178;1259;114803;-68
2023/03/06 13:37:51;;;;;;;32.10;20.30;;;;;;;5.77;63.29;99010.05;129977;1257;114831;-67
2023/03/06 13:41:20;;;;;;;28.10;18.70;;;;;;;5.71;63.65;99011.25;130107;1259;114778;-69
2023/03/06 13:44:25;;;;;;;28.00;19.30;;;;;;;5.60;63.98;99014.27;129889;1277;115249;-69
2023/03/06 13:47:40;;;;;;;33.60;22.10;;;;;;;5.50;64.16;99013.55;130263;1256;114697;-72
2023/03/06 13:50:46;;;;;;;30.80;19.40;;;;;;;5.40;64.52;99015.27;130326;1259;114724;-68
2023/03/06 13:54:00;;;;;;;27.00;19.60;;;;;;;5.25;64.95;99008.00;130385;1256;115279;-69
2023/03/06 13:57:35;;;;;;;27.50;18.60;;;;;;;5.15;65.08;99005.31;130339;1276;128045;-69
2023/03/06 14:00:43;;;;;;;25.90;17.90;;;;;;;5.03;65.57;99008.67;130315;1256;115188;-71
2023/03/06 14:04:19;;;;;;;25.10;18.10;;;;;;;4.98;65.82;99006.14;130324;1256;114702;-69
2023/03/06 14:07:31;;;;;;;21.60;15.80;;;;;;;4.90;66.19;99007.70;130349;1257;114751;-68